sensor_id;sensor_type;location;lat;lon;timestamp;temperature;humidity
19248;DHT22;9758;48.640;8.148;2022-07-17T00:01:29;22.20;29.90
19248;DHT22;9758;48.640;8.148;2022-07-17T00:03:56;22.20;29.90
19248;DHT22;9758;48.640;8.148;2022-07-17T00:06:23;22.20;29.90
19248;DHT22;9758;48.640;8.148;2022-07-17T00:08:51;22.20;29.90
19248;DHT22;9758;48.640;8.148;2022-07-17T00:11:17;22.20;29.90
19248;DHT22;9758;48.640;8.148;2022-07-17T00:13:44;22.20;29.90
19248;DHT22;9758;48.640;8.148;2022-07-17T00:16:11;22.20;29.90
19248;DHT22;9758;48.640;8.148;2022-07-17T00:18:38;22.30;29.90
19248;DHT22;9758;48.640;8.148;2022-07-17T00:21:05;22.30;29.90
19248;DHT22;9758;48.640;8.148;2022-07-17T00:23:32;22.30;29.90
19248;DHT22;9758;48.640;8.148;2022-07-17T00:26:00;22.30;29.90
19248;DHT22;9758;48.640;8.148;2022-07-17T00:28:27;22.30;29.90
19248;DHT22;9758;48.640;8.148;2022-07-17T00:30:53;22.30;29.90
19248;DHT22;9758;48.640;8.148;2022-07-17T00:33:20;22.30;29.90
19248;DHT22;9758;48.640;8.148;2022-07-17T00:35:47;22.40;29.90
19248;DHT22;9758;48.640;8.148;2022-07-17T00:38:14;22.30;29.90
19248;DHT22;9758;48.640;8.148;2022-07-17T00:40:41;22.30;29.90
19248;DHT22;9758;48.640;8.148;2022-07-17T00:43:09;22.40;30.00
19248;DHT22;9758;48.640;8.148;2022-07-17T00:45:36;22.40;29.90
19248;DHT22;9758;48.640;8.148;2022-07-17T00:48:05;22.30;29.90
19248;DHT22;9758;48.640;8.148;2022-07-17T00:50:34;22.30;29.90
19248;DHT22;9758;48.640;8.148;2022-07-17T00:53:01;22.30;29.90
19248;DHT22;9758;48.640;8.148;2022-07-17T00:55:28;22.30;30.00
19248;DHT22;9758;48.640;8.148;2022-07-17T00:57:56;22.30;30.00
19248;DHT22;9758;48.640;8.148;2022-07-17T01:00:25;22.30;30.00
19248;DHT22;9758;48.640;8.148;2022-07-17T01:02:53;22.30;30.00
19248;DHT22;9758;48.640;8.148;2022-07-17T01:05:22;22.30;30.00
19248;DHT22;9758;48.640;8.148;2022-07-17T01:07:49;22.20;30.00
19248;DHT22;9758;48.640;8.148;2022-07-17T01:10:17;22.20;30.00
19248;DHT22;9758;48.640;8.148;2022-07-17T01:12:45;22.20;30.00
19248;DHT22;9758;48.640;8.148;2022-07-17T01:15:12;22.20;30.00
19248;DHT22;9758;48.640;8.148;2022-07-17T01:17:42;22.20;30.00
19248;DHT22;9758;48.640;8.148;2022-07-17T01:20:11;22.10;30.00
19248;DHT22;9758;48.640;8.148;2022-07-17T01:22:43;22.10;30.00
19248;DHT22;9758;48.640;8.148;2022-07-17T01:25:11;22.10;30.00
19248;DHT22;9758;48.640;8.148;2022-07-17T01:27:38;22.10;30.10
19248;DHT22;9758;48.640;8.148;2022-07-17T01:30:05;22.10;30.10
19248;DHT22;9758;48.640;8.148;2022-07-17T01:32:33;22.00;30.10
19248;DHT22;9758;48.640;8.148;2022-07-17T01:35:00;22.00;30.40
19248;DHT22;9758;48.640;8.148;2022-07-17T01:37:27;22.00;30.20
19248;DHT22;9758;48.640;8.148;2022-07-17T01:39:55;22.00;30.20
19248;DHT22;9758;48.640;8.148;2022-07-17T01:42:24;22.00;30.20
19248;DHT22;9758;48.640;8.148;2022-07-17T01:44:52;22.00;30.20
19248;DHT22;9758;48.640;8.148;2022-07-17T01:47:19;22.00;30.20
19248;DHT22;9758;48.640;8.148;2022-07-17T01:49:47;22.00;30.20
19248;DHT22;9758;48.640;8.148;2022-07-17T01:52:14;22.00;30.20
19248;DHT22;9758;48.640;8.148;2022-07-17T01:54:42;22.00;30.30
19248;DHT22;9758;48.640;8.148;2022-07-17T01:57:11;22.00;30.30
19248;DHT22;9758;48.640;8.148;2022-07-17T01:59:38;22.00;30.30
19248;DHT22;9758;48.640;8.148;2022-07-17T02:02:06;22.00;30.20
19248;DHT22;9758;48.640;8.148;2022-07-17T02:04:35;22.00;30.30
19248;DHT22;9758;48.640;8.148;2022-07-17T02:07:02;22.00;30.30
19248;DHT22;9758;48.640;8.148;2022-07-17T02:09:29;22.00;30.20
19248;DHT22;9758;48.640;8.148;2022-07-17T02:11:56;22.00;30.20
19248;DHT22;9758;48.640;8.148;2022-07-17T02:14:25;22.00;30.20
19248;DHT22;9758;48.640;8.148;2022-07-17T02:16:52;22.00;30.20
19248;DHT22;9758;48.640;8.148;2022-07-17T02:19:19;22.00;30.30
19248;DHT22;9758;48.640;8.148;2022-07-17T02:21:46;22.00;30.30
19248;DHT22;9758;48.640;8.148;2022-07-17T02:24:13;22.00;30.30
19248;DHT22;9758;48.640;8.148;2022-07-17T02:26:40;22.00;30.30
19248;DHT22;9758;48.640;8.148;2022-07-17T02:29:07;21.90;30.20
19248;DHT22;9758;48.640;8.148;2022-07-17T02:31:35;21.90;30.30
19248;DHT22;9758;48.640;8.148;2022-07-17T02:34:02;21.90;30.30
19248;DHT22;9758;48.640;8.148;2022-07-17T02:36:29;21.90;30.30
19248;DHT22;9758;48.640;8.148;2022-07-17T02:38:56;21.90;30.30
19248;DHT22;9758;48.640;8.148;2022-07-17T02:41:23;21.90;30.30
19248;DHT22;9758;48.640;8.148;2022-07-17T02:43:49;21.90;30.30
19248;DHT22;9758;48.640;8.148;2022-07-17T02:46:16;21.90;30.40
19248;DHT22;9758;48.640;8.148;2022-07-17T02:48:44;21.90;30.40
19248;DHT22;9758;48.640;8.148;2022-07-17T02:51:11;21.80;30.40
19248;DHT22;9758;48.640;8.148;2022-07-17T02:53:38;21.80;30.40
19248;DHT22;9758;48.640;8.148;2022-07-17T02:56:05;21.80;30.50
19248;DHT22;9758;48.640;8.148;2022-07-17T02:58:32;21.80;30.50
19248;DHT22;9758;48.640;8.148;2022-07-17T03:00:58;21.80;30.50
19248;DHT22;9758;48.640;8.148;2022-07-17T03:03:25;21.70;30.50
19248;DHT22;9758;48.640;8.148;2022-07-17T03:05:53;21.80;30.50
19248;DHT22;9758;48.640;8.148;2022-07-17T03:08:44;21.70;30.50
19248;DHT22;9758;48.640;8.148;2022-07-17T03:11:10;21.70;30.60
19248;DHT22;9758;48.640;8.148;2022-07-17T03:13:37;21.70;30.60
19248;DHT22;9758;48.640;8.148;2022-07-17T03:16:04;21.70;30.60
19248;DHT22;9758;48.640;8.148;2022-07-17T03:18:31;21.70;30.60
19248;DHT22;9758;48.640;8.148;2022-07-17T03:20:59;21.60;30.60
19248;DHT22;9758;48.640;8.148;2022-07-17T03:23:26;21.60;30.60
19248;DHT22;9758;48.640;8.148;2022-07-17T03:25:53;21.60;30.70
19248;DHT22;9758;48.640;8.148;2022-07-17T03:28:20;21.60;30.70
19248;DHT22;9758;48.640;8.148;2022-07-17T03:30:46;21.60;30.70
19248;DHT22;9758;48.640;8.148;2022-07-17T03:33:13;21.50;30.70
19248;DHT22;9758;48.640;8.148;2022-07-17T03:35:40;21.50;30.80
19248;DHT22;9758;48.640;8.148;2022-07-17T03:38:08;21.50;30.80
19248;DHT22;9758;48.640;8.148;2022-07-17T03:40:35;21.50;30.90
19248;DHT22;9758;48.640;8.148;2022-07-17T03:43:01;21.50;30.80
19248;DHT22;9758;48.640;8.148;2022-07-17T03:45:28;21.50;30.90
19248;DHT22;9758;48.640;8.148;2022-07-17T03:47:55;21.50;30.90
19248;DHT22;9758;48.640;8.148;2022-07-17T03:50:22;21.40;30.80
19248;DHT22;9758;48.640;8.148;2022-07-17T03:52:48;21.40;30.90
19248;DHT22;9758;48.640;8.148;2022-07-17T03:55:16;21.40;30.90
19248;DHT22;9758;48.640;8.148;2022-07-17T03:57:43;21.40;30.90
19248;DHT22;9758;48.640;8.148;2022-07-17T04:00:10;21.40;31.00
19248;DHT22;9758;48.640;8.148;2022-07-17T04:02:37;21.40;31.00
19248;DHT22;9758;48.640;8.148;2022-07-17T04:05:04;21.40;31.00
19248;DHT22;9758;48.640;8.148;2022-07-17T04:07:34;21.40;31.10
19248;DHT22;9758;48.640;8.148;2022-07-17T04:10:01;21.40;31.00
19248;DHT22;9758;48.640;8.148;2022-07-17T04:12:29;21.40;31.00
19248;DHT22;9758;48.640;8.148;2022-07-17T04:14:56;21.40;31.00
19248;DHT22;9758;48.640;8.148;2022-07-17T04:17:23;21.30;31.10
19248;DHT22;9758;48.640;8.148;2022-07-17T04:19:50;21.40;31.10
19248;DHT22;9758;48.640;8.148;2022-07-17T04:22:17;21.40;31.10
19248;DHT22;9758;48.640;8.148;2022-07-17T04:24:45;21.40;31.10
19248;DHT22;9758;48.640;8.148;2022-07-17T04:27:12;21.40;31.10
19248;DHT22;9758;48.640;8.148;2022-07-17T04:29:40;21.40;31.10
19248;DHT22;9758;48.640;8.148;2022-07-17T04:32:07;21.40;31.10
19248;DHT22;9758;48.640;8.148;2022-07-17T04:34:34;21.40;31.10
19248;DHT22;9758;48.640;8.148;2022-07-17T04:37:02;21.40;31.10
19248;DHT22;9758;48.640;8.148;2022-07-17T04:39:30;21.40;31.10
19248;DHT22;9758;48.640;8.148;2022-07-17T04:41:57;21.40;31.10
19248;DHT22;9758;48.640;8.148;2022-07-17T04:44:23;21.40;31.10
19248;DHT22;9758;48.640;8.148;2022-07-17T04:46:51;21.40;31.10
19248;DHT22;9758;48.640;8.148;2022-07-17T04:49:19;21.40;31.20
19248;DHT22;9758;48.640;8.148;2022-07-17T04:51:45;21.40;31.20
19248;DHT22;9758;48.640;8.148;2022-07-17T04:54:12;21.40;31.20
19248;DHT22;9758;48.640;8.148;2022-07-17T04:56:39;21.40;31.20
19248;DHT22;9758;48.640;8.148;2022-07-17T04:59:05;21.40;31.20
19248;DHT22;9758;48.640;8.148;2022-07-17T05:01:32;21.50;31.30
19248;DHT22;9758;48.640;8.148;2022-07-17T05:04:00;21.40;31.20
19248;DHT22;9758;48.640;8.148;2022-07-17T05:06:27;21.50;31.20
19248;DHT22;9758;48.640;8.148;2022-07-17T05:08:54;21.50;31.20
19248;DHT22;9758;48.640;8.148;2022-07-17T05:11:21;21.50;31.40
19248;DHT22;9758;48.640;8.148;2022-07-17T05:13:48;21.50;31.30
19248;DHT22;9758;48.640;8.148;2022-07-17T05:16:14;21.50;31.30
19248;DHT22;9758;48.640;8.148;2022-07-17T05:18:41;21.60;31.40
19248;DHT22;9758;48.640;8.148;2022-07-17T05:21:09;21.60;31.50
19248;DHT22;9758;48.640;8.148;2022-07-17T05:23:36;21.60;31.40
19248;DHT22;9758;48.640;8.148;2022-07-17T05:26:03;21.60;31.60
19248;DHT22;9758;48.640;8.148;2022-07-17T05:28:29;21.50;31.60
19248;DHT22;9758;48.640;8.148;2022-07-17T05:30:56;21.50;31.70
19248;DHT22;9758;48.640;8.148;2022-07-17T05:33:23;21.50;31.70
19248;DHT22;9758;48.640;8.148;2022-07-17T05:35:49;21.50;31.80
19248;DHT22;9758;48.640;8.148;2022-07-17T05:38:17;21.40;31.80
19248;DHT22;9758;48.640;8.148;2022-07-17T05:40:44;21.40;31.90
19248;DHT22;9758;48.640;8.148;2022-07-17T05:43:11;21.40;32.10
19248;DHT22;9758;48.640;8.148;2022-07-17T05:45:38;21.40;32.20
19248;DHT22;9758;48.640;8.148;2022-07-17T05:48:05;21.40;32.30
19248;DHT22;9758;48.640;8.148;2022-07-17T05:50:32;21.40;32.20
19248;DHT22;9758;48.640;8.148;2022-07-17T05:52:59;21.40;32.20
19248;DHT22;9758;48.640;8.148;2022-07-17T05:55:33;21.40;32.30
19248;DHT22;9758;48.640;8.148;2022-07-17T05:58:00;21.40;32.30
19248;DHT22;9758;48.640;8.148;2022-07-17T06:00:27;21.50;32.40
19248;DHT22;9758;48.640;8.148;2022-07-17T06:02:53;21.50;32.40
19248;DHT22;9758;48.640;8.148;2022-07-17T06:05:20;21.60;32.40
19248;DHT22;9758;48.640;8.148;2022-07-17T06:07:47;21.60;32.50
19248;DHT22;9758;48.640;8.148;2022-07-17T06:10:14;21.70;32.50
19248;DHT22;9758;48.640;8.148;2022-07-17T06:12:42;21.80;32.50
19248;DHT22;9758;48.640;8.148;2022-07-17T06:15:09;21.80;32.50
19248;DHT22;9758;48.640;8.148;2022-07-17T06:17:37;21.90;32.50
19248;DHT22;9758;48.640;8.148;2022-07-17T06:20:04;21.90;32.50
19248;DHT22;9758;48.640;8.148;2022-07-17T06:22:31;21.90;32.50
19248;DHT22;9758;48.640;8.148;2022-07-17T06:24:58;21.90;32.50
19248;DHT22;9758;48.640;8.148;2022-07-17T06:27:25;21.90;32.60
19248;DHT22;9758;48.640;8.148;2022-07-17T06:29:53;21.90;32.70
19248;DHT22;9758;48.640;8.148;2022-07-17T06:32:20;21.90;32.70
19248;DHT22;9758;48.640;8.148;2022-07-17T06:34:46;21.80;32.80
19248;DHT22;9758;48.640;8.148;2022-07-17T06:37:13;21.80;33.00
19248;DHT22;9758;48.640;8.148;2022-07-17T06:39:40;21.80;33.10
19248;DHT22;9758;48.640;8.148;2022-07-17T06:42:07;21.80;33.10
19248;DHT22;9758;48.640;8.148;2022-07-17T06:44:33;21.70;33.20
19248;DHT22;9758;48.640;8.148;2022-07-17T06:47:02;21.70;33.20
19248;DHT22;9758;48.640;8.148;2022-07-17T06:49:29;21.70;33.30
19248;DHT22;9758;48.640;8.148;2022-07-17T06:51:56;21.80;33.30
19248;DHT22;9758;48.640;8.148;2022-07-17T06:54:22;21.90;33.50
19248;DHT22;9758;48.640;8.148;2022-07-17T06:56:51;21.90;33.30
19248;DHT22;9758;48.640;8.148;2022-07-17T06:59:18;22.00;33.30
19248;DHT22;9758;48.640;8.148;2022-07-17T07:01:45;22.00;33.30
19248;DHT22;9758;48.640;8.148;2022-07-17T07:04:13;22.10;33.30
19248;DHT22;9758;48.640;8.148;2022-07-17T07:06:39;22.20;33.30
19248;DHT22;9758;48.640;8.148;2022-07-17T07:09:07;22.30;33.30
19248;DHT22;9758;48.640;8.148;2022-07-17T07:11:34;22.40;33.30
19248;DHT22;9758;48.640;8.148;2022-07-17T07:14:00;22.40;33.30
19248;DHT22;9758;48.640;8.148;2022-07-17T07:16:28;22.50;33.30
19248;DHT22;9758;48.640;8.148;2022-07-17T07:18:55;22.50;33.40
19248;DHT22;9758;48.640;8.148;2022-07-17T07:21:23;22.60;33.40
19248;DHT22;9758;48.640;8.148;2022-07-17T07:23:51;22.60;33.30
19248;DHT22;9758;48.640;8.148;2022-07-17T07:26:18;22.60;33.30
19248;DHT22;9758;48.640;8.148;2022-07-17T07:28:45;22.70;33.30
19248;DHT22;9758;48.640;8.148;2022-07-17T07:31:11;22.70;33.40
19248;DHT22;9758;48.640;8.148;2022-07-17T07:33:38;22.70;33.30
19248;DHT22;9758;48.640;8.148;2022-07-17T07:36:05;22.80;33.40
19248;DHT22;9758;48.640;8.148;2022-07-17T07:38:34;22.80;33.50
19248;DHT22;9758;48.640;8.148;2022-07-17T07:41:00;22.90;33.40
19248;DHT22;9758;48.640;8.148;2022-07-17T07:43:27;22.90;33.30
19248;DHT22;9758;48.640;8.148;2022-07-17T07:45:54;22.90;33.30
19248;DHT22;9758;48.640;8.148;2022-07-17T07:48:21;23.00;33.40
19248;DHT22;9758;48.640;8.148;2022-07-17T07:50:48;23.00;33.40
19248;DHT22;9758;48.640;8.148;2022-07-17T07:53:15;23.00;33.30
19248;DHT22;9758;48.640;8.148;2022-07-17T07:55:43;23.10;34.00
19248;DHT22;9758;48.640;8.148;2022-07-17T07:58:11;23.20;33.30
19248;DHT22;9758;48.640;8.148;2022-07-17T08:00:39;23.20;33.30
19248;DHT22;9758;48.640;8.148;2022-07-17T08:03:06;23.30;33.90
19248;DHT22;9758;48.640;8.148;2022-07-17T08:05:33;23.40;33.20
19248;DHT22;9758;48.640;8.148;2022-07-17T08:08:01;23.50;33.20
19248;DHT22;9758;48.640;8.148;2022-07-17T08:10:28;23.50;33.20
19248;DHT22;9758;48.640;8.148;2022-07-17T08:12:56;23.60;33.10
19248;DHT22;9758;48.640;8.148;2022-07-17T08:15:23;23.60;33.00
19248;DHT22;9758;48.640;8.148;2022-07-17T08:17:51;23.80;33.10
19248;DHT22;9758;48.640;8.148;2022-07-17T08:20:19;23.80;33.00
19248;DHT22;9758;48.640;8.148;2022-07-17T08:22:47;23.90;33.00
19248;DHT22;9758;48.640;8.148;2022-07-17T08:25:14;23.90;33.00
19248;DHT22;9758;48.640;8.148;2022-07-17T08:27:43;24.00;33.00
19248;DHT22;9758;48.640;8.148;2022-07-17T08:30:13;24.00;33.10
19248;DHT22;9758;48.640;8.148;2022-07-17T08:32:40;24.10;32.90
19248;DHT22;9758;48.640;8.148;2022-07-17T08:35:07;24.20;32.90
19248;DHT22;9758;48.640;8.148;2022-07-17T08:37:42;24.30;33.00
19248;DHT22;9758;48.640;8.148;2022-07-17T08:40:16;24.30;32.90
19248;DHT22;9758;48.640;8.148;2022-07-17T08:42:42;24.50;32.90
19248;DHT22;9758;48.640;8.148;2022-07-17T08:45:11;24.50;32.80
19248;DHT22;9758;48.640;8.148;2022-07-17T08:47:39;24.60;32.80
19248;DHT22;9758;48.640;8.148;2022-07-17T08:50:06;24.80;32.70
19248;DHT22;9758;48.640;8.148;2022-07-17T08:52:33;24.80;32.60
19248;DHT22;9758;48.640;8.148;2022-07-17T08:55:00;25.00;32.70
19248;DHT22;9758;48.640;8.148;2022-07-17T08:57:27;25.00;32.50
19248;DHT22;9758;48.640;8.148;2022-07-17T08:59:54;25.10;32.50
19248;DHT22;9758;48.640;8.148;2022-07-17T09:02:22;25.20;32.40
19248;DHT22;9758;48.640;8.148;2022-07-17T09:04:53;25.30;32.40
19248;DHT22;9758;48.640;8.148;2022-07-17T09:07:21;25.40;32.40
19248;DHT22;9758;48.640;8.148;2022-07-17T09:09:52;25.50;32.40
19248;DHT22;9758;48.640;8.148;2022-07-17T09:12:25;25.60;32.30
19248;DHT22;9758;48.640;8.148;2022-07-17T09:14:52;25.70;32.20
19248;DHT22;9758;48.640;8.148;2022-07-17T09:17:22;25.70;32.10
19248;DHT22;9758;48.640;8.148;2022-07-17T09:19:52;25.70;32.10
19248;DHT22;9758;48.640;8.148;2022-07-17T09:22:21;25.80;32.10
19248;DHT22;9758;48.640;8.148;2022-07-17T09:24:50;25.90;32.10
19248;DHT22;9758;48.640;8.148;2022-07-17T09:27:29;26.00;32.10
19248;DHT22;9758;48.640;8.148;2022-07-17T09:29:59;26.10;32.10
19248;DHT22;9758;48.640;8.148;2022-07-17T09:32:29;26.30;32.10
19248;DHT22;9758;48.640;8.148;2022-07-17T09:34:58;26.30;32.60
19248;DHT22;9758;48.640;8.148;2022-07-17T09:37:26;26.40;32.00
19248;DHT22;9758;48.640;8.148;2022-07-17T09:39:54;26.50;32.00
19248;DHT22;9758;48.640;8.148;2022-07-17T09:42:26;26.60;32.00
19248;DHT22;9758;48.640;8.148;2022-07-17T09:45:00;26.70;31.90
19248;DHT22;9758;48.640;8.148;2022-07-17T09:47:30;26.70;31.80
19248;DHT22;9758;48.640;8.148;2022-07-17T09:49:58;26.80;31.80
19248;DHT22;9758;48.640;8.148;2022-07-17T09:52:28;26.80;31.80
19248;DHT22;9758;48.640;8.148;2022-07-17T09:54:57;26.90;31.70
19248;DHT22;9758;48.640;8.148;2022-07-17T09:57:26;26.90;31.70
19248;DHT22;9758;48.640;8.148;2022-07-17T09:59:55;27.00;31.80
19248;DHT22;9758;48.640;8.148;2022-07-17T10:02:22;27.00;31.80
19248;DHT22;9758;48.640;8.148;2022-07-17T10:04:52;27.00;31.80
19248;DHT22;9758;48.640;8.148;2022-07-17T10:07:19;27.10;31.70
19248;DHT22;9758;48.640;8.148;2022-07-17T10:09:47;27.20;31.80
19248;DHT22;9758;48.640;8.148;2022-07-17T10:12:14;27.20;31.70
19248;DHT22;9758;48.640;8.148;2022-07-17T10:14:42;27.30;31.70
19248;DHT22;9758;48.640;8.148;2022-07-17T10:17:13;27.40;31.60
19248;DHT22;9758;48.640;8.148;2022-07-17T10:19:46;27.50;32.20
19248;DHT22;9758;48.640;8.148;2022-07-17T10:22:15;27.50;31.50
19248;DHT22;9758;48.640;8.148;2022-07-17T10:24:47;27.60;31.50
19248;DHT22;9758;48.640;8.148;2022-07-17T10:27:20;27.70;31.50
19248;DHT22;9758;48.640;8.148;2022-07-17T10:29:58;27.80;31.50
19248;DHT22;9758;48.640;8.148;2022-07-17T10:32:25;27.90;31.40
19248;DHT22;9758;48.640;8.148;2022-07-17T10:34:57;27.90;31.30
19248;DHT22;9758;48.640;8.148;2022-07-17T10:37:27;27.90;31.20
19248;DHT22;9758;48.640;8.148;2022-07-17T10:40:06;28.00;31.20
19248;DHT22;9758;48.640;8.148;2022-07-17T10:43:00;28.10;31.30
19248;DHT22;9758;48.640;8.148;2022-07-17T10:45:30;28.20;31.30
19248;DHT22;9758;48.640;8.148;2022-07-17T10:48:02;28.30;31.20
19248;DHT22;9758;48.640;8.148;2022-07-17T10:50:31;28.30;31.10
19248;DHT22;9758;48.640;8.148;2022-07-17T10:53:12;28.30;31.00
19248;DHT22;9758;48.640;8.148;2022-07-17T10:55:42;28.40;31.00
19248;DHT22;9758;48.640;8.148;2022-07-17T10:58:17;28.50;31.00
19248;DHT22;9758;48.640;8.148;2022-07-17T11:00:55;28.50;31.00
19248;DHT22;9758;48.640;8.148;2022-07-17T11:03:22;28.60;30.90
19248;DHT22;9758;48.640;8.148;2022-07-17T11:05:49;28.70;30.80
19248;DHT22;9758;48.640;8.148;2022-07-17T11:08:17;28.70;30.80
19248;DHT22;9758;48.640;8.148;2022-07-17T11:10:45;28.80;30.70
19248;DHT22;9758;48.640;8.148;2022-07-17T11:13:14;28.80;30.70
19248;DHT22;9758;48.640;8.148;2022-07-17T11:15:43;28.80;30.70
19248;DHT22;9758;48.640;8.148;2022-07-17T11:18:12;28.90;30.70
19248;DHT22;9758;48.640;8.148;2022-07-17T11:20:50;28.90;30.60
19248;DHT22;9758;48.640;8.148;2022-07-17T11:23:19;29.00;30.50
19248;DHT22;9758;48.640;8.148;2022-07-17T11:26:07;29.00;30.50
19248;DHT22;9758;48.640;8.148;2022-07-17T11:28:38;29.10;30.60
19248;DHT22;9758;48.640;8.148;2022-07-17T11:31:17;29.10;30.40
19248;DHT22;9758;48.640;8.148;2022-07-17T11:33:51;29.20;30.40
19248;DHT22;9758;48.640;8.148;2022-07-17T11:36:24;29.20;30.40
19248;DHT22;9758;48.640;8.148;2022-07-17T11:38:54;29.30;30.30
19248;DHT22;9758;48.640;8.148;2022-07-17T11:41:21;29.30;30.30
19248;DHT22;9758;48.640;8.148;2022-07-17T11:43:48;29.30;30.20
19248;DHT22;9758;48.640;8.148;2022-07-17T11:46:15;29.40;30.30
19248;DHT22;9758;48.640;8.148;2022-07-17T11:48:43;29.50;30.30
19248;DHT22;9758;48.640;8.148;2022-07-17T11:51:10;29.50;30.20
19248;DHT22;9758;48.640;8.148;2022-07-17T11:53:38;29.60;30.10
19248;DHT22;9758;48.640;8.148;2022-07-17T11:56:07;29.60;30.00
19248;DHT22;9758;48.640;8.148;2022-07-17T11:58:42;29.70;30.00
19248;DHT22;9758;48.640;8.148;2022-07-17T12:01:09;29.70;30.00
19248;DHT22;9758;48.640;8.148;2022-07-17T12:03:36;29.70;30.00
19248;DHT22;9758;48.640;8.148;2022-07-17T12:06:03;29.70;30.00
19248;DHT22;9758;48.640;8.148;2022-07-17T12:08:30;29.80;30.00
19248;DHT22;9758;48.640;8.148;2022-07-17T12:11:02;29.80;29.80
19248;DHT22;9758;48.640;8.148;2022-07-17T12:13:39;29.80;29.80
19248;DHT22;9758;48.640;8.148;2022-07-17T12:16:21;29.90;29.80
19248;DHT22;9758;48.640;8.148;2022-07-17T12:18:57;30.00;29.80
19248;DHT22;9758;48.640;8.148;2022-07-17T12:21:24;30.00;30.20
19248;DHT22;9758;48.640;8.148;2022-07-17T12:23:58;30.10;29.80
19248;DHT22;9758;48.640;8.148;2022-07-17T12:26:25;30.10;29.50
19248;DHT22;9758;48.640;8.148;2022-07-17T12:28:53;30.20;29.60
19248;DHT22;9758;48.640;8.148;2022-07-17T12:31:20;30.30;29.70
19248;DHT22;9758;48.640;8.148;2022-07-17T12:33:50;30.30;29.60
19248;DHT22;9758;48.640;8.148;2022-07-17T12:36:17;30.40;29.60
19248;DHT22;9758;48.640;8.148;2022-07-17T12:38:44;30.50;29.60
19248;DHT22;9758;48.640;8.148;2022-07-17T12:41:11;30.60;29.40
19248;DHT22;9758;48.640;8.148;2022-07-17T12:43:38;30.60;29.30
19248;DHT22;9758;48.640;8.148;2022-07-17T12:46:07;30.60;29.30
19248;DHT22;9758;48.640;8.148;2022-07-17T12:48:33;30.60;29.30
19248;DHT22;9758;48.640;8.148;2022-07-17T12:51:02;30.70;29.30
19248;DHT22;9758;48.640;8.148;2022-07-17T12:53:29;30.80;29.20
19248;DHT22;9758;48.640;8.148;2022-07-17T12:55:56;30.90;29.10
19248;DHT22;9758;48.640;8.148;2022-07-17T12:58:22;30.90;29.10
19248;DHT22;9758;48.640;8.148;2022-07-17T13:00:49;30.90;29.10
19248;DHT22;9758;48.640;8.148;2022-07-17T13:03:17;31.00;29.00
19248;DHT22;9758;48.640;8.148;2022-07-17T13:05:44;31.10;29.10
19248;DHT22;9758;48.640;8.148;2022-07-17T13:08:11;31.20;29.00
19248;DHT22;9758;48.640;8.148;2022-07-17T13:10:37;31.20;28.70
19248;DHT22;9758;48.640;8.148;2022-07-17T13:13:05;31.20;28.80
19248;DHT22;9758;48.640;8.148;2022-07-17T13:15:32;31.20;28.70
19248;DHT22;9758;48.640;8.148;2022-07-17T13:17:58;31.20;28.70
19248;DHT22;9758;48.640;8.148;2022-07-17T13:20:27;31.30;28.60
19248;DHT22;9758;48.640;8.148;2022-07-17T13:22:54;31.30;28.60
19248;DHT22;9758;48.640;8.148;2022-07-17T13:25:21;31.30;28.50
19248;DHT22;9758;48.640;8.148;2022-07-17T13:27:48;31.40;28.60
19248;DHT22;9758;48.640;8.148;2022-07-17T13:30:15;31.50;28.60
19248;DHT22;9758;48.640;8.148;2022-07-17T13:32:41;31.50;28.60
19248;DHT22;9758;48.640;8.148;2022-07-17T13:35:08;31.60;29.00
19248;DHT22;9758;48.640;8.148;2022-07-17T13:37:37;31.70;28.40
19248;DHT22;9758;48.640;8.148;2022-07-17T13:40:05;31.70;28.40
19248;DHT22;9758;48.640;8.148;2022-07-17T13:42:32;31.70;28.30
19248;DHT22;9758;48.640;8.148;2022-07-17T13:44:59;31.80;28.30
19248;DHT22;9758;48.640;8.148;2022-07-17T13:47:25;31.90;28.30
19248;DHT22;9758;48.640;8.148;2022-07-17T13:49:52;31.90;28.20
19248;DHT22;9758;48.640;8.148;2022-07-17T13:52:19;31.90;28.10
19248;DHT22;9758;48.640;8.148;2022-07-17T13:54:47;31.80;28.00
19248;DHT22;9758;48.640;8.148;2022-07-17T13:57:14;31.80;27.90
19248;DHT22;9758;48.640;8.148;2022-07-17T13:59:40;31.80;28.00
19248;DHT22;9758;48.640;8.148;2022-07-17T14:02:17;31.70;28.00
19248;DHT22;9758;48.640;8.148;2022-07-17T14:04:44;31.80;28.00
19248;DHT22;9758;48.640;8.148;2022-07-17T14:07:11;31.80;28.00
19248;DHT22;9758;48.640;8.148;2022-07-17T14:09:38;31.90;28.00
19248;DHT22;9758;48.640;8.148;2022-07-17T14:12:06;31.90;27.90
19248;DHT22;9758;48.640;8.148;2022-07-17T14:14:33;32.00;27.90
19248;DHT22;9758;48.640;8.148;2022-07-17T14:17:00;32.00;27.90
19248;DHT22;9758;48.640;8.148;2022-07-17T14:19:27;32.00;27.90
19248;DHT22;9758;48.640;8.148;2022-07-17T14:21:53;32.10;27.80
19248;DHT22;9758;48.640;8.148;2022-07-17T14:24:20;32.10;27.80
19248;DHT22;9758;48.640;8.148;2022-07-17T14:26:47;32.20;27.40
19248;DHT22;9758;48.640;8.148;2022-07-17T14:29:15;32.20;27.70
19248;DHT22;9758;48.640;8.148;2022-07-17T14:31:42;32.30;27.70
19248;DHT22;9758;48.640;8.148;2022-07-17T14:34:08;32.30;27.50
19248;DHT22;9758;48.640;8.148;2022-07-17T14:36:35;32.30;27.50
19248;DHT22;9758;48.640;8.148;2022-07-17T14:39:02;32.30;27.50
19248;DHT22;9758;48.640;8.148;2022-07-17T14:41:29;32.30;27.40
19248;DHT22;9758;48.640;8.148;2022-07-17T14:43:55;32.30;27.40
19248;DHT22;9758;48.640;8.148;2022-07-17T14:46:24;32.30;27.20
19248;DHT22;9758;48.640;8.148;2022-07-17T14:48:51;32.30;27.10
19248;DHT22;9758;48.640;8.148;2022-07-17T14:51:17;32.30;27.30
19248;DHT22;9758;48.640;8.148;2022-07-17T14:53:44;32.20;27.40
19248;DHT22;9758;48.640;8.148;2022-07-17T14:56:19;32.30;27.40
19248;DHT22;9758;48.640;8.148;2022-07-17T14:58:46;32.30;27.80
19248;DHT22;9758;48.640;8.148;2022-07-17T15:01:12;32.30;27.10
19248;DHT22;9758;48.640;8.148;2022-07-17T15:03:40;32.40;27.20
19248;DHT22;9758;48.640;8.148;2022-07-17T15:06:07;32.40;27.00
19248;DHT22;9758;48.640;8.148;2022-07-17T15:08:34;32.40;27.00
19248;DHT22;9758;48.640;8.148;2022-07-17T15:11:01;32.40;27.10
19248;DHT22;9758;48.640;8.148;2022-07-17T15:13:29;32.40;27.10
19248;DHT22;9758;48.640;8.148;2022-07-17T15:15:55;32.50;27.10
19248;DHT22;9758;48.640;8.148;2022-07-17T15:18:22;32.50;26.80
19248;DHT22;9758;48.640;8.148;2022-07-17T15:20:50;32.50;26.90
19248;DHT22;9758;48.640;8.148;2022-07-17T15:23:17;32.50;26.50
19248;DHT22;9758;48.640;8.148;2022-07-17T15:25:44;32.50;26.70
19248;DHT22;9758;48.640;8.148;2022-07-17T15:28:10;32.50;26.60
19248;DHT22;9758;48.640;8.148;2022-07-17T15:30:38;32.50;26.80
19248;DHT22;9758;48.640;8.148;2022-07-17T15:33:04;32.70;27.00
19248;DHT22;9758;48.640;8.148;2022-07-17T15:35:31;33.10;27.20
19248;DHT22;9758;48.640;8.148;2022-07-17T15:37:59;33.80;27.20
19248;DHT22;9758;48.640;8.148;2022-07-17T15:40:26;34.60;27.10
19248;DHT22;9758;48.640;8.148;2022-07-17T15:42:53;35.50;26.90
19248;DHT22;9758;48.640;8.148;2022-07-17T15:45:21;36.50;26.70
19248;DHT22;9758;48.640;8.148;2022-07-17T15:47:49;37.60;26.30
19248;DHT22;9758;48.640;8.148;2022-07-17T15:50:19;38.60;25.70